createdAt,value
2022-10-01T00:02:20.953Z,3.90
2022-10-01T00:04:52.196Z,4.10
2022-10-01T00:07:23.828Z,3.83
2022-10-01T00:09:55.081Z,3.70
2022-10-01T00:12:26.340Z,3.73
2022-10-01T00:14:57.594Z,6.40
2022-10-01T00:17:29.498Z,4.73
2022-10-01T00:20:01.037Z,3.10
2022-10-01T00:22:37.205Z,3.37
2022-10-01T00:25:08.597Z,4.47
2022-10-01T00:27:40.781Z,4.00
2022-10-01T00:30:12.329Z,4.97
2022-10-01T00:32:43.616Z,4.17
2022-10-01T00:35:15.048Z,4.77
2022-10-01T00:37:50.463Z,4.77
2022-10-01T00:40:22.612Z,6.78
2022-10-01T00:42:53.957Z,4.47
2022-10-01T00:45:25.359Z,3.43
2022-10-01T00:47:59.197Z,4.53
2022-10-01T00:50:34.052Z,3.07
2022-10-01T00:53:08.230Z,5.57
2022-10-01T00:55:51.975Z,6.50
2022-10-01T00:58:24.785Z,3.90
2022-10-01T01:00:57.196Z,5.63
2022-10-01T01:03:29.034Z,5.07
2022-10-01T01:06:00.299Z,3.80
2022-10-01T01:08:32.412Z,4.10
2022-10-01T01:11:15.489Z,4.30
2022-10-01T01:14:08.463Z,3.67
2022-10-01T01:16:51.496Z,4.00
2022-10-01T01:19:41.136Z,5.43
2022-10-01T01:22:14.697Z,4.20
2022-10-01T01:24:59.483Z,5.00
2022-10-01T01:27:42.321Z,5.47
2022-10-01T01:30:17.484Z,4.70
2022-10-01T01:33:03.014Z,4.07
2022-10-01T01:35:41.531Z,2.93
2022-10-01T01:38:24.304Z,3.47
2022-10-01T01:41:00.337Z,5.37
2022-10-01T01:43:36.102Z,5.25
2022-10-01T01:46:10.945Z,6.50
2022-10-01T01:48:49.366Z,4.60
2022-10-01T01:51:31.361Z,5.87
2022-10-01T01:54:03.132Z,3.63
2022-10-01T01:56:35.608Z,3.00
2022-10-01T01:59:08.397Z,4.17
2022-10-01T02:01:41.699Z,2.80
2022-10-01T02:04:20.527Z,3.67
2022-10-01T02:07:08.690Z,5.20
2022-10-01T02:10:10.361Z,5.43
2022-10-01T02:13:01.784Z,5.00
2022-10-01T02:15:41.493Z,4.30
2022-10-01T02:18:23.741Z,4.27
2022-10-01T02:21:09.909Z,8.10
2022-10-01T02:23:46.784Z,3.22
2022-10-01T02:26:20.969Z,9.20
2022-10-01T02:28:55.334Z,4.57
2022-10-01T02:31:29.933Z,5.93
2022-10-01T02:34:04.387Z,3.23
2022-10-01T02:36:38.573Z,5.23
2022-10-01T02:39:11.375Z,4.73
2022-10-01T02:41:45.654Z,3.30
2022-10-01T02:44:21.148Z,3.80
2022-10-01T02:47:02.806Z,4.03
2022-10-01T02:49:36.266Z,6.13
2022-10-01T02:52:27.242Z,3.20
2022-10-01T02:55:10.210Z,5.03
2022-10-01T02:57:42.090Z,4.43
2022-10-01T03:00:21.134Z,4.53
2022-10-01T03:02:53.376Z,5.00
2022-10-01T03:05:24.982Z,6.33
2022-10-01T03:07:56.425Z,4.00
2022-10-01T03:10:27.809Z,5.20
2022-10-01T03:13:01.644Z,5.13
2022-10-01T03:15:33.276Z,4.10
2022-10-01T03:18:04.522Z,5.37
2022-10-01T03:20:35.823Z,7.07
2022-10-01T03:23:07.094Z,2.97
2022-10-01T03:25:38.810Z,4.97
2022-10-01T03:28:10.161Z,5.10
2022-10-01T03:30:41.638Z,5.00
2022-10-01T03:33:12.902Z,3.10
2022-10-01T03:35:44.131Z,3.70
2022-10-01T03:38:15.384Z,3.23
2022-10-01T03:40:46.755Z,2.80
2022-10-01T03:43:18.017Z,4.83
2022-10-01T03:45:49.320Z,3.40
2022-10-01T03:48:21.109Z,3.53
2022-10-01T03:50:57.635Z,5.17
2022-10-01T03:53:29.109Z,5.80
2022-10-01T03:56:01.801Z,7.37
2022-10-01T03:58:33.787Z,4.03
2022-10-01T04:01:05.065Z,4.37
2022-10-01T04:03:36.661Z,5.43
2022-10-01T04:06:07.925Z,5.10
2022-10-01T04:08:39.683Z,4.77
2022-10-01T04:11:11.441Z,4.57
2022-10-01T04:13:42.702Z,5.07
2022-10-01T04:16:15.592Z,4.17
2022-10-01T04:18:46.988Z,5.33
2022-10-01T04:21:18.237Z,6.67
2022-10-01T04:23:50.191Z,8.30
2022-10-01T04:26:21.482Z,3.90
2022-10-01T04:28:52.822Z,6.23
2022-10-01T04:31:24.330Z,5.20
2022-10-01T04:33:57.394Z,4.50
2022-10-01T04:36:28.744Z,5.70
2022-10-01T04:39:02.551Z,5.20
2022-10-01T04:41:34.559Z,4.30
2022-10-01T04:44:06.222Z,5.23
2022-10-01T04:46:37.517Z,5.77
2022-10-01T04:49:08.802Z,4.53
2022-10-01T04:51:40.041Z,3.80
2022-10-01T04:54:11.284Z,5.43
2022-10-01T04:56:42.525Z,6.13
2022-10-01T04:59:13.797Z,3.87
2022-10-01T05:01:45.953Z,3.93
2022-10-01T05:04:17.308Z,5.20
2022-10-01T05:06:48.611Z,5.70
2022-10-01T05:09:19.852Z,6.60
2022-10-01T05:11:51.986Z,6.60
2022-10-01T05:14:23.330Z,5.67
2022-10-01T05:16:54.572Z,7.10
2022-10-01T05:19:28.937Z,7.17
2022-10-01T05:22:00.220Z,5.70
2022-10-01T05:24:31.495Z,6.60
2022-10-01T05:27:02.809Z,7.93
2022-10-01T05:29:34.985Z,7.07
2022-10-01T05:32:06.382Z,5.00
2022-10-01T05:34:38.910Z,5.47
2022-10-01T05:37:10.837Z,5.33
2022-10-01T05:39:42.176Z,5.00
2022-10-01T05:42:13.412Z,5.93
2022-10-01T05:44:47.453Z,4.83
2022-10-01T05:47:20.531Z,6.00
2022-10-01T05:49:51.846Z,5.97
2022-10-01T05:52:23.077Z,5.27
2022-10-01T05:54:54.482Z,5.43
2022-10-01T05:57:25.817Z,7.10
2022-10-01T05:59:57.916Z,6.30
2022-10-01T06:02:29.916Z,10.03
2022-10-01T06:05:01.265Z,5.93
2022-10-01T06:07:32.625Z,6.50
2022-10-01T06:10:04.200Z,5.60
2022-10-01T06:12:35.452Z,5.07
2022-10-01T06:15:07.386Z,4.10
2022-10-01T06:17:44.979Z,4.93
2022-10-01T06:20:18.945Z,5.80
2022-10-01T06:22:55.596Z,4.60
2022-10-01T06:25:29.615Z,7.30
2022-10-01T06:28:01.796Z,5.10
2022-10-01T06:30:36.163Z,5.67
2022-10-01T06:33:12.977Z,5.37
2022-10-01T06:35:49.714Z,5.60
2022-10-01T06:38:22.828Z,5.20
2022-10-01T06:40:56.131Z,5.93
2022-10-01T06:43:29.120Z,6.80
2022-10-01T06:46:02.893Z,5.63
2022-10-01T06:48:36.280Z,7.63
2022-10-01T06:51:08.563Z,4.70
2022-10-01T06:53:39.960Z,4.90
2022-10-01T06:56:11.212Z,6.20
2022-10-01T06:58:43.180Z,4.27
2022-10-01T07:01:16.822Z,6.13
2022-10-01T07:03:48.083Z,6.50
2022-10-01T07:06:19.796Z,4.70
2022-10-01T07:08:51.208Z,7.60
2022-10-01T07:11:22.439Z,6.17
2022-10-01T07:13:54.782Z,5.00
2022-10-01T07:16:26.339Z,5.83
2022-10-01T07:18:57.745Z,4.33
2022-10-01T07:21:29.041Z,8.87
2022-10-01T07:24:00.377Z,3.17
2022-10-01T07:26:31.976Z,3.83
2022-10-01T07:29:03.333Z,3.93
2022-10-01T07:31:34.945Z,3.97
2022-10-01T07:34:06.346Z,4.00
2022-10-01T07:36:37.629Z,4.70
2022-10-01T07:39:09.035Z,4.00
2022-10-01T07:41:42.728Z,6.27
2022-10-01T07:44:14.109Z,5.77
2022-10-01T07:46:47.149Z,4.10
2022-10-01T07:49:18.511Z,5.83
2022-10-01T07:51:49.766Z,3.93
2022-10-01T07:54:25.304Z,3.67
2022-10-01T07:56:56.732Z,5.15
2022-10-01T07:59:27.967Z,3.83
2022-10-01T08:01:59.426Z,4.53
2022-10-01T08:04:49.570Z,4.53
2022-10-01T08:07:21.162Z,3.87
2022-10-01T08:09:52.451Z,3.37
2022-10-01T08:12:24.360Z,4.43
2022-10-01T08:14:55.907Z,3.53
2022-10-01T08:17:29.530Z,3.67
2022-10-01T08:20:01.393Z,3.70
2022-10-01T08:22:33.305Z,3.90
2022-10-01T08:25:05.102Z,2.57
2022-10-01T08:27:36.934Z,2.93
2022-10-01T08:30:08.738Z,5.83
2022-10-01T08:32:40.099Z,6.67
2022-10-01T08:35:11.726Z,3.57
2022-10-01T08:37:42.986Z,5.47
2022-10-01T08:40:14.953Z,3.80
2022-10-01T08:43:02.560Z,4.67
2022-10-01T08:45:47.424Z,4.27
2022-10-01T08:48:37.248Z,5.23
2022-10-01T08:51:15.740Z,3.33
2022-10-01T08:53:59.673Z,5.47
2022-10-01T08:56:35.599Z,3.17
2022-10-01T08:59:35.897Z,4.35
2022-10-01T09:02:25.311Z,4.60
2022-10-01T09:05:01.988Z,3.93
2022-10-01T09:07:36.432Z,4.17
2022-10-01T09:10:27.822Z,3.83
2022-10-01T09:13:36.600Z,7.80
2022-10-01T09:16:15.011Z,5.43
2022-10-01T09:19:08.366Z,4.53
2022-10-01T09:21:56.534Z,5.33
2022-10-01T09:24:43.023Z,6.07
2022-10-01T09:27:21.277Z,5.00
2022-10-01T09:29:58.418Z,5.67
2022-10-01T09:32:41.241Z,3.93
2022-10-01T09:35:44.133Z,5.53
2022-10-01T09:38:33.253Z,3.97
2022-10-01T09:41:04.854Z,4.37
2022-10-01T09:43:41.422Z,4.30
2022-10-01T09:46:17.023Z,7.27
2022-10-01T09:49:12.818Z,6.18
2022-10-01T09:51:52.371Z,5.33
2022-10-01T09:54:44.595Z,4.87
2022-10-01T09:57:24.516Z,4.50
2022-10-01T10:00:21.101Z,5.37
2022-10-01T10:02:54.715Z,5.68
2022-10-01T10:05:29.188Z,6.50
2022-10-01T10:08:11.048Z,7.83
2022-10-01T10:11:09.785Z,4.57
2022-10-01T10:13:49.486Z,7.23
2022-10-01T10:16:27.000Z,4.03
2022-10-01T10:19:02.849Z,4.57
2022-10-01T10:21:37.860Z,5.82
2022-10-01T10:24:24.904Z,5.32
2022-10-01T10:26:58.406Z,4.95
2022-10-01T10:29:32.416Z,6.63
2022-10-01T10:32:18.876Z,7.20
2022-10-01T10:34:51.995Z,5.90
2022-10-01T10:37:32.615Z,4.50
2022-10-01T10:40:08.190Z,9.40
2022-10-01T10:42:53.978Z,5.82
2022-10-01T10:45:37.932Z,7.07
2022-10-01T10:48:17.121Z,6.27
2022-10-01T10:50:48.513Z,4.70
2022-10-01T10:53:22.534Z,6.03
2022-10-01T10:56:02.281Z,7.17
2022-10-01T10:58:42.441Z,4.20
2022-10-01T11:01:17.957Z,7.13
2022-10-01T11:03:56.057Z,7.72
2022-10-01T11:06:28.053Z,7.73
2022-10-01T11:09:02.461Z,7.00
2022-10-01T11:12:02.733Z,4.90
2022-10-01T11:15:07.241Z,7.57
2022-10-01T11:17:57.281Z,4.17
2022-10-01T11:20:40.337Z,4.63
2022-10-01T11:23:34.075Z,7.83
2022-10-01T11:26:18.036Z,5.90
2022-10-01T11:28:55.242Z,6.23
2022-10-01T11:31:50.956Z,4.43
2022-10-01T11:34:43.735Z,6.73
2022-10-01T11:37:29.244Z,4.93
2022-10-01T11:40:13.139Z,4.67
2022-10-01T11:42:47.104Z,7.03
2022-10-01T11:45:25.711Z,5.53
2022-10-01T11:48:25.818Z,7.93
2022-10-01T11:51:05.366Z,4.83
2022-10-01T11:53:51.076Z,11.83
2022-10-01T11:56:50.293Z,6.88
2022-10-01T11:59:37.439Z,8.23
2022-10-01T12:02:20.694Z,5.07
2022-10-01T12:05:18.385Z,5.83
2022-10-01T12:07:58.750Z,6.83
2022-10-01T12:10:42.932Z,6.03
2022-10-01T12:13:34.298Z,5.27
2022-10-01T12:16:10.348Z,7.87
2022-10-01T12:21:23.813Z,4.10
2022-10-01T12:24:03.745Z,4.50
2022-10-01T12:26:44.094Z,7.80
2022-10-01T12:29:37.774Z,8.93
2022-10-01T12:32:54.151Z,5.30
2022-10-01T12:35:48.748Z,3.37
2022-10-01T12:39:04.600Z,7.90
2022-10-01T12:42:03.808Z,7.07
2022-10-01T12:44:53.424Z,6.35
2022-10-01T12:47:53.762Z,5.28
2022-10-01T12:50:37.352Z,6.30
2022-10-01T12:53:20.444Z,6.88
2022-10-01T12:56:06.201Z,7.65
2022-10-01T12:58:51.200Z,4.75
2022-10-01T13:01:37.515Z,3.75
2022-10-01T13:04:35.871Z,3.60
2022-10-01T13:07:27.623Z,4.63
2022-10-01T13:10:35.408Z,3.47
2022-10-01T13:13:22.069Z,5.95
2022-10-01T13:16:07.869Z,6.95
2022-10-01T13:19:19.579Z,6.00
2022-10-01T13:22:21.136Z,6.95
2022-10-01T13:25:06.355Z,9.65
2022-10-01T13:27:51.325Z,2.13
2022-10-01T13:30:24.789Z,3.47
2022-10-01T13:33:03.223Z,7.23
2022-10-01T13:35:39.387Z,5.70
2022-10-01T13:38:14.950Z,3.13
2022-10-01T13:40:57.396Z,4.95
2022-10-01T13:43:30.472Z,7.63
2022-10-01T13:46:10.836Z,5.27
2022-10-01T13:48:48.006Z,4.93
2022-10-01T13:51:20.214Z,8.20
2022-10-01T13:54:00.596Z,5.13
2022-10-01T13:56:37.158Z,3.53
2022-10-01T13:59:38.849Z,3.27
2022-10-01T14:02:30.378Z,7.77
2022-10-01T14:05:17.153Z,5.83
2022-10-01T14:07:55.063Z,2.60
2022-10-01T14:10:56.810Z,2.77
2022-10-01T14:13:48.900Z,4.40
2022-10-01T14:16:20.529Z,5.30
2022-10-01T14:18:52.003Z,2.47
2022-10-01T14:21:58.870Z,3.57
2022-10-01T14:24:30.153Z,1.55
2022-10-01T14:27:17.221Z,0.60
2022-10-01T14:30:11.092Z,1.33
2022-10-01T14:33:03.829Z,2.40
2022-10-01T14:35:52.670Z,2.10
2022-10-01T14:38:24.966Z,3.77
2022-10-01T14:40:56.292Z,2.60
2022-10-01T14:43:30.552Z,7.20
2022-10-01T14:46:04.553Z,5.03
2022-10-01T14:48:40.362Z,5.33
2022-10-01T14:51:29.837Z,3.30
2022-10-01T14:54:01.325Z,4.10
2022-10-01T14:56:33.923Z,5.53
2022-10-01T14:59:21.430Z,2.10
2022-10-01T15:01:58.421Z,2.13
2022-10-01T15:04:29.870Z,3.90
2022-10-01T15:07:11.758Z,5.67
2022-10-01T15:09:46.898Z,3.50
2022-10-01T15:12:21.512Z,3.07
2022-10-01T15:14:54.385Z,2.47
2022-10-01T15:17:27.052Z,3.30
2022-10-01T15:19:58.867Z,5.40
2022-10-01T15:22:30.342Z,2.43
2022-10-01T15:25:02.171Z,3.27
2022-10-01T15:27:33.789Z,3.13
2022-10-01T15:30:06.156Z,2.57
2022-10-01T15:32:37.561Z,3.97
2022-10-01T15:35:13.226Z,2.77
2022-10-01T15:37:50.085Z,6.15
2022-10-01T15:40:35.251Z,4.10
2022-10-01T15:43:24.001Z,4.27
2022-10-01T15:46:04.691Z,2.63
2022-10-01T15:48:36.607Z,3.30
2022-10-01T15:51:27.333Z,2.43
2022-10-01T15:54:07.087Z,3.23
2022-10-01T15:56:41.604Z,3.10
2022-10-01T15:59:18.630Z,3.07
2022-10-01T16:01:49.992Z,5.90
2022-10-01T16:04:21.534Z,2.17
2022-10-01T16:06:53.219Z,3.50
2022-10-01T16:09:28.441Z,2.50
2022-10-01T16:12:02.709Z,3.13
2022-10-01T16:14:43.650Z,3.73
2022-10-01T16:17:17.971Z,5.87
2022-10-01T16:19:52.186Z,1.30
2022-10-01T16:22:29.867Z,2.40
2022-10-01T16:25:26.049Z,3.27
2022-10-01T16:28:00.775Z,3.50
2022-10-01T16:30:34.070Z,2.57
2022-10-01T16:33:06.929Z,5.23
2022-10-01T16:35:40.620Z,3.63
2022-10-01T16:38:12.511Z,4.57
2022-10-01T16:40:47.675Z,5.57
2022-10-01T16:43:24.165Z,5.07
2022-10-01T16:45:56.244Z,4.30
2022-10-01T16:48:28.274Z,9.40
2022-10-01T16:50:59.831Z,4.53
2022-10-01T16:53:31.380Z,5.20
2022-10-01T16:56:02.672Z,3.93
2022-10-01T16:58:34.148Z,7.47
2022-10-01T17:01:09.813Z,4.10
2022-10-01T17:03:41.570Z,6.45
2022-10-01T17:06:12.853Z,4.20
2022-10-01T17:08:44.319Z,3.67
2022-10-01T17:11:15.744Z,5.33
2022-10-01T17:13:47.005Z,3.63
2022-10-01T17:16:24.421Z,6.03
2022-10-01T17:18:55.953Z,4.67
2022-10-01T17:21:28.268Z,7.00
2022-10-01T17:24:00.520Z,6.20
2022-10-01T17:26:32.177Z,6.93
2022-10-01T17:29:03.861Z,6.93
2022-10-01T17:31:40.706Z,6.10
2022-10-01T17:34:13.050Z,6.50
2022-10-01T17:36:45.658Z,8.30
2022-10-01T17:39:16.997Z,12.03
2022-10-01T17:41:48.320Z,12.27
2022-10-01T17:44:19.587Z,8.53
2022-10-01T17:46:50.830Z,6.57
2022-10-01T17:49:22.138Z,9.53
2022-10-01T17:51:53.514Z,7.73
2022-10-01T17:54:25.430Z,12.07
2022-10-01T17:56:56.775Z,11.80
2022-10-01T17:59:30.954Z,9.03
2022-10-01T18:02:13.925Z,13.80
2022-10-01T18:04:53.940Z,20.53
2022-10-01T18:07:26.230Z,9.17
2022-10-01T18:09:57.487Z,13.37
2022-10-01T18:12:28.776Z,9.80
2022-10-01T18:15:00.749Z,13.17
2022-10-01T18:17:33.265Z,7.63
2022-10-01T18:20:08.549Z,6.47
2022-10-01T18:22:40.665Z,12.25
2022-10-01T18:25:15.853Z,6.63
2022-10-01T18:27:49.959Z,14.93
2022-10-01T18:30:21.567Z,5.00
2022-10-01T18:32:57.073Z,6.93
2022-10-01T18:35:34.634Z,9.10
2022-10-01T18:38:21.842Z,6.27
2022-10-01T18:41:06.435Z,11.87
2022-10-01T18:43:39.796Z,8.00
2022-10-01T18:46:24.054Z,8.23
2022-10-01T18:49:14.358Z,7.57
2022-10-01T18:51:52.056Z,8.03
2022-10-01T18:55:01.318Z,8.67
2022-10-01T18:58:00.148Z,13.20
2022-10-01T19:00:45.768Z,7.97
2022-10-01T19:04:00.153Z,12.03
2022-10-01T19:06:45.529Z,4.80
2022-10-01T19:09:22.590Z,12.20
2022-10-01T19:12:29.587Z,6.40
2022-10-01T19:15:19.758Z,5.50
2022-10-01T19:18:07.691Z,11.93
2022-10-01T19:20:54.452Z,9.63
2022-10-01T19:24:06.427Z,12.20
2022-10-01T19:26:52.321Z,13.30
2022-10-01T19:29:37.235Z,12.45
2022-10-01T19:32:22.787Z,13.43
2022-10-01T19:35:11.969Z,9.50
2022-10-01T19:37:51.428Z,15.70
2022-10-01T19:40:45.911Z,14.87
2022-10-01T19:43:33.632Z,11.50
2022-10-01T19:46:32.026Z,12.77
2022-10-01T19:49:25.906Z,10.07
2022-10-01T19:52:00.476Z,10.83
2022-10-01T19:54:33.890Z,7.50
2022-10-01T19:57:18.050Z,4.40
2022-10-01T19:59:54.731Z,10.80
2022-10-01T20:02:33.626Z,3.27
2022-10-01T20:05:16.688Z,6.97
2022-10-01T20:08:16.258Z,8.27
2022-10-01T20:11:14.467Z,10.87
2022-10-01T20:14:07.078Z,6.77
2022-10-01T20:16:51.440Z,8.13
2022-10-01T20:19:38.587Z,8.53
2022-10-01T20:22:41.048Z,8.20
2022-10-01T20:25:29.476Z,4.30
2022-10-01T20:28:19.146Z,10.20
2022-10-01T20:31:15.946Z,10.93
2022-10-01T20:34:04.122Z,14.50
2022-10-01T20:37:14.165Z,10.90
2022-10-01T20:39:59.977Z,11.10
2022-10-01T20:42:38.888Z,10.35
2022-10-01T20:45:26.314Z,8.53
2022-10-01T20:48:03.730Z,8.37
2022-10-01T20:50:43.746Z,10.60
2022-10-01T20:53:22.041Z,7.13
2022-10-01T20:56:04.225Z,10.37
2022-10-01T20:58:44.488Z,12.23
2022-10-01T21:01:24.844Z,13.53
2022-10-01T21:04:11.122Z,9.23
2022-10-01T21:06:47.281Z,11.25
2022-10-01T21:09:26.525Z,6.10
2022-10-01T21:12:11.471Z,14.00
2022-10-01T21:14:52.524Z,15.23
2022-10-01T21:17:53.351Z,6.23
2022-10-01T21:20:57.463Z,8.23
2022-10-01T21:23:50.684Z,15.03
2022-10-01T21:26:25.381Z,9.13
2022-10-01T21:29:15.669Z,15.70
2022-10-01T21:32:05.884Z,11.10
2022-10-01T21:35:07.337Z,12.80
2022-10-01T21:37:51.716Z,11.83
2022-10-01T21:40:47.488Z,15.00
2022-10-01T21:43:35.981Z,6.70
2022-10-01T21:46:22.223Z,11.00
2022-10-01T21:49:08.993Z,17.75
2022-10-01T21:54:49.008Z,20.90
2022-10-01T21:57:48.197Z,11.17
2022-10-01T22:00:26.418Z,11.17
2022-10-01T22:03:22.390Z,9.33
2022-10-01T22:05:59.828Z,11.70
2022-10-01T22:09:18.973Z,13.63
2022-10-01T22:11:55.855Z,15.23
2022-10-01T22:14:28.417Z,12.77
2022-10-01T22:17:14.557Z,21.23
2022-10-01T22:19:49.922Z,9.75
2022-10-01T22:22:25.613Z,9.73
2022-10-01T22:24:59.622Z,14.32
2022-10-01T22:27:44.097Z,15.27
2022-10-01T22:30:25.317Z,11.30
2022-10-01T22:33:06.159Z,15.63
2022-10-01T22:36:02.202Z,11.17
2022-10-01T22:38:48.199Z,11.67
2022-10-01T22:41:28.305Z,13.23
2022-10-01T22:44:06.475Z,14.73
2022-10-01T22:46:46.741Z,13.20
2022-10-01T22:49:36.020Z,13.40
2022-10-01T22:52:28.917Z,12.90
2022-10-01T22:55:09.020Z,13.13
2022-10-01T22:58:06.149Z,9.97
2022-10-01T23:03:31.737Z,15.17
2022-10-01T23:09:14.526Z,14.23
2022-10-01T23:12:00.066Z,14.90
2022-10-01T23:14:40.403Z,14.03
2022-10-01T23:17:22.702Z,11.37
2022-10-01T23:20:16.201Z,12.33
2022-10-01T23:23:16.442Z,12.80
2022-10-01T23:26:21.952Z,20.37
2022-10-01T23:29:12.011Z,10.37
2022-10-01T23:31:55.542Z,16.37
2022-10-01T23:34:50.518Z,19.37
2022-10-01T23:37:33.681Z,12.90
2022-10-01T23:40:11.116Z,15.07
2022-10-01T23:42:45.884Z,12.10
2022-10-01T23:45:26.351Z,16.57
2022-10-01T23:48:35.520Z,10.53
2022-10-01T23:51:19.029Z,12.23
2022-10-01T23:54:27.387Z,16.63
2022-10-01T23:57:32.383Z,14.53
